UWLW

Ulyanovsk East Airport

Ulyanovsk, Russian Federation
TAF UWLW 210445Z 2106/2206 21003G09MPS 8000 SCT033 TEMPO 2106/2124 25006G13MPS BKN015CB TEMPO 2200/2206 4000 -SHRA BKN015CB
Issued Valid From Valid To
Aug-21 @ 04:45 UTC
(13 hours ago)
Aug-21 @ 06:00 UTC
(12 hours ago)
Aug-22 @ 06:00 UTC
(in 12 hours)
Aug-21 @ 06:00 to Aug-22 @ 06:00
TAF UWLW 210445Z 2106/2206 21003G09MPS 8000 SCT033
Wind Visibility Clouds
210° at 6 knots
 Gusting to 17 knots
7,998 meters
  • Scattered at 3,300' AGL
Temporary Aug-21 @ 06:00 to Aug-22 @ 00:00
TEMPO 2106/2124 25006G13MPS BKN015CB
Wind Clouds
250° at 12 knots
 Gusting to 25 knots
  • Broken at 1,500' AGL
Temporary Aug-22 @ 00:00 to Aug-22 @ 06:00
TEMPO 2200/2206 4000 -SHRA BKN015CB
Visibility Clouds Conditions
4,007 meters
  • Broken at 1,500' AGL
  • Light Rain
TAF UWLW 210445Z 2106/2206 21003G09MPS 8000 SCT033 TEMPO 2106/2124 25006G13MPS BKN015CB TEMPO 2200/2206 4000 -SHRA BKN015CB
Issued Aug-21 @ 04:45 UTC
(13 hours ago)
Valid From Aug-21 @ 06:00 UTC
(12 hours ago)
Valid To Aug-22 @ 06:00 UTC
(in 12 hours)
Aug-21 @ 06:00 - Aug-22 @ 06:00
Wind Visibility
210° at 6 knots
 Gusting to 17 knots
7,998 meters
Clouds
  • Scattered at 3,300' AGL
Temporary Aug-21 @ 06:00 - Aug-22 @ 00:00
Wind
250° at 12 knots
 Gusting to 25 knots
Clouds
  • Broken at 1,500' AGL
Temporary Aug-22 @ 00:00 - Aug-22 @ 06:00
Clouds
  • Broken at 1,500' AGL
Conditions
  • Light Rain